Time;durP1;ratioP1;P1;durP2;ratioP2;P2;SDS_P1;SDS_P2;PMS_P1;PMS_P2;Temp;Humidity;BMP_temperature;BMP_pressure;BME280_temperature;BME280_humidity;BME280_pressure;Samples;Min_cycle;Max_cycle;Signal;HPM_P1;HPM_P2
2023/12/19 00:01:32;;;;;;;19.60;10.10;;;;;;;9.63;48.77;99784.50;232363;204;151988;-57
2023/12/19 00:06:35;;;;;;;19.90;10.50;;;;;;;9.64;48.88;99764.46;231774;204;137781;-57
2023/12/19 00:11:38;;;;;;;19.60;10.60;;;;;;;9.64;48.88;99754.19;231446;200;139009;-59
2023/12/19 00:16:42;;;;;;;17.40;10.30;;;;;;;9.63;48.83;99753.16;232454;204;151311;-59
2023/12/19 00:21:45;;;;;;;19.90;10.40;;;;;;;9.57;48.70;99749.39;232087;204;136985;-58
2023/12/19 00:26:48;;;;;;;19.30;9.60;;;;;;;9.54;48.62;99739.97;232051;197;137675;-58
2023/12/19 00:31:51;;;;;;;18.40;9.20;;;;;;;9.51;48.40;99734.44;232324;197;152925;-58
2023/12/19 00:36:54;;;;;;;15.70;8.90;;;;;;;9.50;48.22;99729.86;232344;204;136865;-58
2023/12/19 00:41:58;;;;;;;17.60;9.50;;;;;;;9.48;48.08;99733.67;232362;204;137355;-58
2023/12/19 00:47:02;;;;;;;19.10;8.80;;;;;;;9.48;47.87;99735.28;231713;204;153427;-58
2023/12/19 00:52:06;;;;;;;17.70;8.80;;;;;;;9.46;47.86;99744.58;232106;204;137076;-58
2023/12/19 00:57:09;;;;;;;18.80;9.10;;;;;;;9.45;47.73;99748.71;232394;200;137696;-58
2023/12/19 01:02:12;;;;;;;17.90;9.10;;;;;;;9.40;47.70;99754.43;232235;201;152377;-56
2023/12/19 01:07:15;;;;;;;14.40;8.40;;;;;;;9.34;47.79;99753.28;231999;201;137279;-60
2023/12/19 01:12:18;;;;;;;16.70;8.60;;;;;;;9.27;47.93;99752.36;232389;204;137694;-59
2023/12/19 01:17:22;;;;;;;17.70;8.80;;;;;;;9.18;48.05;99747.80;232451;201;151146;-60
2023/12/19 01:22:25;;;;;;;16.40;9.00;;;;;;;9.15;48.11;99744.95;232368;204;137803;-59
2023/12/19 01:27:28;;;;;;;17.70;8.80;;;;;;;9.11;48.13;99741.77;232512;204;140661;-56
2023/12/19 01:32:31;;;;;;;16.30;8.90;;;;;;;9.08;48.17;99742.39;232038;204;152083;-59
2023/12/19 01:37:35;;;;;;;19.60;9.20;;;;;;;9.04;48.22;99748.98;232413;204;136904;-59
2023/12/19 01:42:38;;;;;;;16.20;9.60;;;;;;;9.00;48.38;99734.06;232422;197;137460;-56
2023/12/19 01:47:44;;;;;;;19.00;9.20;;;;;;;9.06;48.09;99705.34;232210;204;151336;-56
2023/12/19 01:52:56;;;;;;;17.60;8.90;;;;;;;9.08;47.97;99690.00;232369;201;137277;-56
2023/12/19 01:58:00;;;;;;;19.20;8.60;;;;;;;9.09;47.72;99682.88;232126;204;137515;-55
2023/12/19 02:03:04;;;;;;;18.50;9.20;;;;;;;9.07;47.80;99672.52;232215;200;151325;-57
2023/12/19 02:08:08;;;;;;;18.30;9.30;;;;;;;9.06;47.73;99685.16;231730;205;140168;-54
2023/12/19 02:13:12;;;;;;;21.10;9.70;;;;;;;9.04;47.79;99676.75;231938;197;137003;-58
2023/12/19 02:18:19;;;;;;;20.00;9.90;;;;;;;8.99;47.90;99689.55;231838;198;150373;-58
2023/12/19 02:23:23;;;;;;;20.30;9.30;;;;;;;8.94;48.04;99692.05;231809;201;136798;-54
2023/12/19 02:28:27;;;;;;;19.50;8.90;;;;;;;8.91;48.03;99693.45;231610;205;137172;-57
2023/12/19 02:33:30;;;;;;;18.50;8.40;;;;;;;8.90;47.82;99684.80;231396;202;151788;-55
2023/12/19 02:38:33;;;;;;;15.20;7.80;;;;;;;8.90;47.35;99670.45;232013;201;138162;-56
2023/12/19 02:43:37;;;;;;;16.90;7.90;;;;;;;8.91;47.18;99658.92;231745;205;137335;-56
2023/12/19 02:48:57;;;;;;;15.40;7.80;;;;;;;8.92;46.90;99653.58;231987;198;151284;-57
2023/12/19 02:54:01;;;;;;;14.20;7.40;;;;;;;8.95;46.95;99656.98;231646;203;140149;-56
2023/12/19 02:59:04;;;;;;;16.60;7.30;;;;;;;8.97;46.84;99650.33;231973;197;137666;-56
2023/12/19 03:04:07;;;;;;;12.60;6.70;;;;;;;8.99;46.51;99640.52;231866;204;152191;-56
2023/12/19 03:09:10;;;;;;;13.80;7.20;;;;;;;9.00;46.17;99630.71;231493;201;137006;-55
2023/12/19 03:14:13;;;;;;;13.40;6.80;;;;;;;9.06;45.97;99627.65;231973;202;137101;-52
2023/12/19 03:19:17;;;;;;;14.90;7.20;;;;;;;9.08;45.67;99622.95;231126;205;153571;-56
2023/12/19 03:24:23;;;;;;;14.40;6.80;;;;;;;9.08;45.63;99620.61;231834;198;137355;-57
2023/12/19 03:29:28;;;;;;;13.90;7.00;;;;;;;9.12;45.36;99623.27;231963;198;137114;-58
2023/12/19 03:34:31;;;;;;;12.00;6.60;;;;;;;9.13;45.33;99626.96;231961;203;151884;-57
2023/12/19 03:39:35;;;;;;;11.10;6.60;;;;;;;9.11;45.11;99611.83;231836;197;137858;-59
2023/12/19 03:44:40;;;;;;;11.20;6.40;;;;;;;9.15;45.04;99607.01;231792;202;137307;-59
2023/12/19 03:49:43;;;;;;;;;;;;;;;9.17;44.93;99598.08;231584;203;152505;-58
2023/12/19 03:54:47;;;;;;;11.90;5.60;;;;;;;9.18;44.81;99586.70;231966;198;136388;-60
2023/12/19 03:59:50;;;;;;;12.90;6.20;;;;;;;9.23;44.77;99592.81;231967;198;136591;-60
2023/12/19 04:04:53;;;;;;;14.50;6.30;;;;;;;9.30;44.33;99588.26;231890;198;153246;-56
2023/12/19 04:09:57;;;;;;;11.20;5.70;;;;;;;9.27;44.45;99592.64;231303;205;137250;-57
2023/12/19 04:15:00;;;;;;;84.00;49.40;;;;;;;9.31;44.24;99599.88;231516;202;137693;-59
2023/12/19 04:20:04;;;;;;;22.40;14.40;;;;;;;9.39;44.04;99601.78;231671;205;151561;-59
2023/12/19 04:25:07;;;;;;;105.60;74.00;;;;;;;9.44;43.93;99601.59;231571;201;137413;-59
2023/12/19 04:30:11;;;;;;;22.90;11.70;;;;;;;9.46;43.99;99608.17;231461;198;138202;-57
2023/12/19 04:35:14;;;;;;;14.10;6.40;;;;;;;9.43;43.86;99594.36;231393;198;151968;-60
2023/12/19 04:40:17;;;;;;;14.10;6.60;;;;;;;9.39;43.72;99586.59;231569;205;136873;-59
2023/12/19 04:45:20;;;;;;;13.30;6.50;;;;;;;9.28;43.61;99573.33;231662;205;137196;-58
2023/12/19 04:50:23;;;;;;;10.40;6.10;;;;;;;9.17;43.86;99558.60;231896;198;152198;-60
2023/12/19 04:55:28;;;;;;;16.90;7.20;;;;;;;9.09;43.96;99554.89;231668;205;138312;-59
2023/12/19 05:00:32;;;;;;;14.10;6.70;;;;;;;9.05;44.13;99553.33;231556;198;137239;-59
2023/12/19 05:05:35;;;;;;;11.80;6.20;;;;;;;9.03;44.26;99562.11;231485;198;152274;-57
2023/12/19 05:10:38;;;;;;;12.90;6.10;;;;;;;9.07;44.28;99573.42;231897;198;138371;-59
2023/12/19 05:15:42;;;;;;;182.30;124.20;;;;;;;9.12;44.47;99576.20;231673;198;137562;-58
2023/12/19 05:20:45;;;;;;;17.80;11.10;;;;;;;9.26;44.98;99574.64;231668;203;152048;-60
2023/12/19 05:25:49;;;;;;;15.90;6.00;;;;;;;9.30;44.16;99568.08;231266;202;137339;-59
2023/12/19 05:30:56;;;;;;;9.30;5.30;;;;;;;9.32;44.01;99573.63;231415;205;137122;-59
2023/12/19 05:35:59;;;;;;;11.80;5.50;;;;;;;9.36;43.90;99575.56;231873;205;151530;-59
2023/12/19 05:41:04;;;;;;;11.80;5.10;;;;;;;9.38;43.80;99580.61;231692;201;136964;-56
2023/12/19 05:46:07;;;;;;;9.90;5.20;;;;;;;9.40;43.83;99577.11;232077;198;136899;-57
2023/12/19 05:51:11;;;;;;;10.90;5.40;;;;;;;9.42;43.88;99569.05;232010;201;152048;-58
2023/12/19 05:56:14;;;;;;;10.60;5.70;;;;;;;9.41;43.80;99563.27;231761;202;137674;-58
2023/12/19 06:01:17;;;;;;;11.80;5.10;;;;;;;9.43;43.88;99570.98;231820;198;137094;-57
2023/12/19 06:06:21;;;;;;;8.30;4.80;;;;;;;9.46;43.76;99574.88;231928;202;152003;-57
2023/12/19 06:11:26;;;;;;;13.90;5.90;;;;;;;9.52;43.56;99561.70;231808;202;137460;-58
2023/12/19 06:16:29;;;;;;;13.60;5.10;;;;;;;9.59;43.52;99559.39;231981;198;137582;-57
2023/12/19 06:21:33;;;;;;;14.60;5.90;;;;;;;9.65;43.66;99564.91;231942;198;152803;-58
2023/12/19 06:26:37;;;;;;;15.00;6.10;;;;;;;9.65;43.55;99569.54;230965;205;137480;-59
2023/12/19 06:31:46;;;;;;;22.10;7.90;;;;;;;9.57;43.58;99569.06;231949;197;137559;-56
2023/12/19 06:36:49;;;;;;;16.10;7.10;;;;;;;9.46;43.90;99554.55;231427;198;151516;-58
2023/12/19 06:41:53;;;;;;;15.40;7.90;;;;;;;9.36;44.19;99546.54;231820;202;136810;-56
2023/12/19 06:46:56;;;;;;;22.70;7.80;;;;;;;9.28;44.51;99558.08;231623;205;137994;-54
2023/12/19 06:52:00;;;;;;;20.10;8.30;;;;;;;9.20;44.69;99565.54;231712;198;151963;-57
2023/12/19 06:57:05;;;;;;;19.60;8.60;;;;;;;9.16;45.02;99549.27;231921;198;136788;-57
2023/12/19 07:02:08;;;;;;;20.10;8.20;;;;;;;9.18;45.33;99543.48;231906;199;137630;-60
2023/12/19 07:07:11;;;;;;;25.60;8.60;;;;;;;9.21;45.38;99539.67;231840;197;151548;-59
2023/12/19 07:12:14;;;;;;;20.80;8.10;;;;;;;9.21;45.36;99526.90;231997;198;136958;-59
2023/12/19 07:17:17;;;;;;;23.90;7.90;;;;;;;9.21;45.40;99529.36;231964;198;138736;-62
2023/12/19 07:22:20;;;;;;;14.80;6.30;;;;;;;9.23;45.25;99543.94;232010;205;151943;-62
2023/12/19 07:27:24;;;;;;;16.10;5.70;;;;;;;9.38;44.84;99532.07;231834;205;136925;-61
2023/12/19 07:32:27;;;;;;;7.80;3.50;;;;;;;9.62;44.20;99529.83;231701;202;137544;-59
2023/12/19 07:37:31;;;;;;;5.40;3.10;;;;;;;9.86;43.36;99527.91;231526;198;151643;-61
2023/12/19 07:42:38;;;;;;;5.60;2.90;;;;;;;10.07;42.60;99539.55;231228;202;136544;-60
2023/12/19 07:47:41;;;;;;;6.40;3.10;;;;;;;10.26;42.14;99541.95;231831;198;137157;-60
2023/12/19 07:52:45;;;;;;;9.70;3.90;;;;;;;10.39;41.57;99533.84;231974;198;152068;-59
2023/12/19 07:57:49;;;;;;;8.10;3.80;;;;;;;10.48;41.15;99521.86;231962;198;136697;-61
2023/12/19 08:02:53;;;;;;;10.30;3.90;;;;;;;10.51;41.17;99523.26;231528;198;137127;-55
2023/12/19 08:07:57;;;;;;;140.70;69.00;;;;;;;10.56;41.49;99525.84;231952;197;151873;-56
2023/12/19 08:13:00;;;;;;;15.20;4.90;;;;;;;10.71;41.20;99516.33;231269;205;137749;-58
2023/12/19 08:18:04;;;;;;;10.90;4.10;;;;;;;10.79;40.58;99512.30;231513;198;137775;-55
2023/12/19 08:23:11;;;;;;;11.40;3.90;;;;;;;10.85;40.47;99508.26;231864;205;151494;-58
2023/12/19 08:28:14;;;;;;;7.10;3.40;;;;;;;10.90;40.01;99515.13;231757;199;137216;-59
2023/12/19 08:33:17;;;;;;;9.10;3.60;;;;;;;10.93;39.91;99511.73;231891;198;137750;-59
2023/12/19 08:38:24;;;;;;;8.70;3.70;;;;;;;11.01;39.64;99514.13;231693;198;154607;-60
2023/12/19 08:43:28;;;;;;;6.90;3.10;;;;;;;11.12;39.52;99511.54;231921;198;137843;-59
2023/12/19 08:48:31;;;;;;;7.70;3.60;;;;;;;11.23;39.09;99493.02;231522;202;137588;-58
2023/12/19 08:53:34;;;;;;;10.00;3.80;;;;;;;11.35;39.04;99472.92;231717;201;151546;-56
2023/12/19 08:58:38;;;;;;;11.20;4.10;;;;;;;11.46;38.70;99466.95;231638;198;159497;-58
2023/12/19 09:03:41;;;;;;;10.80;4.00;;;;;;;11.52;38.59;99458.77;231591;202;137258;-59
2023/12/19 09:08:44;;;;;;;7.50;4.10;;;;;;;11.56;38.97;99446.98;231903;198;151247;-59
2023/12/19 09:13:47;;;;;;;9.40;4.20;;;;;;;11.67;39.02;99446.89;231791;202;138686;-59
2023/12/19 09:18:51;;;;;;;12.60;4.40;;;;;;;11.76;38.87;99448.27;231871;198;139060;-57
2023/12/19 09:23:55;;;;;;;12.30;4.20;;;;;;;11.88;38.68;99439.39;231497;198;153493;-55
2023/12/19 09:28:58;;;;;;;9.60;4.40;;;;;;;11.93;38.51;99436.45;231207;198;139117;-55
2023/12/19 09:34:02;;;;;;;8.60;4.40;;;;;;;11.96;38.16;99429.31;232006;202;138332;-55
2023/12/19 09:39:06;;;;;;;8.40;4.30;;;;;;;12.04;38.26;99420.30;231794;202;154237;-57
2023/12/19 09:44:10;;;;;;;11.40;4.40;;;;;;;12.16;38.27;99408.69;230951;205;139554;-59
2023/12/19 09:49:30;;;;;;;9.60;4.40;;;;;;;12.21;38.08;99405.57;231714;197;138797;-59
2023/12/19 09:54:35;;;;;;;9.90;4.60;;;;;;;12.20;38.24;99394.58;231835;202;153171;-56
2023/12/19 09:59:43;;;;;;;11.10;4.60;;;;;;;12.25;38.67;99388.24;231460;198;138797;-58
2023/12/19 10:04:58;;;;;;;9.70;4.80;;;;;;;12.30;38.59;99375.98;231725;198;137439;-57
2023/12/19 10:10:02;;;;;;;14.20;4.30;;;;;;;12.36;38.70;99364.56;231913;197;153518;-58
2023/12/19 10:15:12;;;;;;;9.60;4.40;;;;;;;12.47;38.62;99363.52;231569;198;138644;-57
2023/12/19 10:20:17;;;;;;;13.60;5.00;;;;;;;12.64;38.51;99359.39;231536;205;137070;-58
2023/12/19 10:25:23;;;;;;;10.30;4.90;;;;;;;12.79;38.53;99351.26;231833;202;153431;-55
2023/12/19 10:30:36;;;;;;;8.40;5.10;;;;;;;12.95;38.29;99345.35;231652;205;141993;-57
2023/12/19 10:35:42;;;;;;;10.40;5.00;;;;;;;13.02;37.95;99340.82;231797;205;137854;-57
2023/12/19 10:41:00;;;;;;;16.60;5.40;;;;;;;13.10;38.02;99328.51;231886;202;153356;-56
2023/12/19 10:46:04;;;;;;;15.80;5.50;;;;;;;13.08;37.78;99317.48;231915;202;138624;-57
2023/12/19 10:51:10;;;;;;;9.90;5.40;;;;;;;13.04;37.91;99301.84;231524;198;138899;-56
2023/12/19 10:56:15;;;;;;;12.70;6.00;;;;;;;13.03;38.22;99281.79;231615;198;154301;-55
2023/12/19 11:01:24;;;;;;;11.90;4.90;;;;;;;13.13;37.95;99276.33;231266;202;138791;-57
2023/12/19 11:06:33;;;;;;;11.90;5.40;;;;;;;13.26;38.12;99272.91;231654;198;138662;-56
2023/12/19 11:11:37;;;;;;;18.30;5.80;;;;;;;13.35;37.58;99264.70;231646;205;153295;-57
2023/12/19 11:17:26;;;;;;;10.20;5.20;;;;;;;13.38;37.49;99257.34;231593;197;138619;-55
2023/12/19 11:22:39;;;;;;;12.60;5.30;;;;;;;13.39;37.22;99239.05;231927;202;138178;-54
2023/12/19 11:27:52;;;;;;;10.80;5.30;;;;;;;13.40;37.14;99236.67;231829;205;154522;-55
2023/12/19 11:32:55;;;;;;;10.90;5.00;;;;;;;13.40;36.98;99234.36;231583;198;138697;-57
2023/12/19 11:38:17;;;;;;;12.50;5.20;;;;;;;13.41;36.91;99226.47;231805;202;138143;-55
2023/12/19 11:43:27;;;;;;;18.50;11.70;;;;;;;13.42;36.52;99221.55;231637;198;153104;-55
2023/12/19 11:48:36;;;;;;;14.60;5.00;;;;;;;13.45;36.07;99210.64;231740;197;138701;-55
2023/12/19 11:53:41;;;;;;;11.80;4.40;;;;;;;13.47;36.03;99205.30;231671;197;139837;-56
2023/12/19 11:58:47;;;;;;;11.70;4.50;;;;;;;13.52;36.02;99201.63;231939;205;153729;-55
2023/12/19 12:04:03;;;;;;;11.90;4.80;;;;;;;13.56;35.98;99191.91;231973;198;138039;-56
2023/12/19 12:09:07;;;;;;;9.00;4.50;;;;;;;13.59;35.96;99182.04;231553;203;138669;-57
2023/12/19 12:14:10;;;;;;;12.00;4.60;;;;;;;13.62;35.98;99179.48;231228;198;153289;-55
2023/12/19 12:19:16;;;;;;;13.00;4.70;;;;;;;13.65;35.96;99177.52;231438;198;138692;-57
2023/12/19 12:24:23;;;;;;;12.10;4.50;;;;;;;13.67;35.97;99171.66;231620;198;138687;-56
2023/12/19 12:29:42;;;;;;;10.80;5.10;;;;;;;13.66;36.07;99163.19;231599;199;154274;-55
2023/12/19 12:34:45;;;;;;;80.00;55.40;;;;;;;13.68;36.53;99151.57;231462;202;138752;-54
2023/12/19 12:39:49;;;;;;;14.70;7.20;;;;;;;13.72;36.75;99138.95;231325;205;137857;-54
2023/12/19 12:45:00;;;;;;;14.90;6.30;;;;;;;13.71;36.63;99129.41;231705;198;155020;-57
2023/12/19 12:50:04;;;;;;;14.50;6.10;;;;;;;13.72;36.85;99117.08;231529;205;137690;-55
2023/12/19 12:55:12;;;;;;;15.70;6.20;;;;;;;13.71;36.78;99103.07;231644;198;138783;-56
2023/12/19 13:00:16;;;;;;;16.30;6.30;;;;;;;13.68;37.01;99082.59;231088;202;152973;-57
2023/12/19 13:05:29;;;;;;;18.10;6.30;;;;;;;13.69;37.19;99068.08;230996;201;139125;-56
2023/12/19 13:10:32;;;;;;;15.90;6.90;;;;;;;13.68;37.38;99060.14;231447;198;138727;-57
2023/12/19 13:15:35;;;;;;;16.30;5.80;;;;;;;13.68;37.57;99046.05;231687;198;153769;-60
2023/12/19 13:20:39;;;;;;;37.80;21.40;;;;;;;13.65;37.76;99052.14;231371;205;138661;-58
2023/12/19 13:25:42;;;;;;;21.70;10.50;;;;;;;13.61;39.03;99038.70;231581;205;137696;-57
2023/12/19 13:30:45;;;;;;;17.40;6.00;;;;;;;13.62;38.23;99037.03;231192;202;153159;-55
2023/12/19 13:35:49;;;;;;;20.80;6.50;;;;;;;13.60;38.07;99028.11;231889;205;137834;-59
2023/12/19 13:40:53;;;;;;;17.20;6.00;;;;;;;13.54;38.08;99019.27;231113;202;138653;-56
2023/12/19 13:45:56;;;;;;;101.80;77.60;;;;;;;13.52;38.63;99012.66;231644;203;153786;-45
2023/12/19 13:50:59;;;;;;;17.90;6.90;;;;;;;13.57;39.40;99003.91;231160;198;138644;-57
2023/12/19 13:56:04;;;;;;;14.40;5.10;;;;;;;13.54;38.32;99000.23;231271;198;138784;-54
2023/12/19 14:01:08;;;;;;;20.30;5.50;;;;;;;13.49;38.36;98990.59;231046;202;153238;-56
2023/12/19 14:06:12;;;;;;;15.50;5.80;;;;;;;13.46;38.34;98983.69;231710;199;138660;-56
2023/12/19 14:11:15;;;;;;;13.20;5.00;;;;;;;13.44;38.39;98980.80;231890;198;138162;-56
2023/12/19 14:16:18;;;;;;;38.10;27.20;;;;;;;13.45;39.87;98974.32;231434;199;153068;-55
2023/12/19 14:21:22;;;;;;;11.50;6.20;;;;;;;13.44;38.94;98964.80;231528;202;138765;-55
2023/12/19 14:26:25;;;;;;;15.50;5.40;;;;;;;13.31;39.75;98963.43;231304;202;138813;-59
2023/12/19 14:31:33;;;;;;;11.70;5.20;;;;;;;13.13;39.36;98954.64;231006;202;154990;-57
2023/12/19 14:36:36;;;;;;;13.40;5.80;;;;;;;13.06;39.51;98948.02;231522;198;138669;-58
2023/12/19 14:41:40;;;;;;;16.70;6.10;;;;;;;13.01;39.59;98938.90;231838;198;138317;-56
2023/12/19 14:46:45;;;;;;;19.40;5.70;;;;;;;12.98;39.64;98940.13;231483;202;154624;-56
2023/12/19 14:51:49;;;;;;;14.70;5.60;;;;;;;12.93;39.63;98939.98;231981;198;138008;-58
2023/12/19 14:56:53;;;;;;;150.10;121.30;;;;;;;12.88;39.57;98931.65;231901;198;137394;-58
2023/12/19 15:01:57;;;;;;;19.70;7.20;;;;;;;12.92;41.24;98927.05;231520;205;153277;-59
2023/12/19 15:07:01;;;;;;;10.50;4.80;;;;;;;12.92;39.13;98922.64;231185;205;138896;-54
2023/12/19 15:12:06;;;;;;;12.50;4.30;;;;;;;12.88;38.33;98914.03;231680;205;138183;-58
2023/12/19 15:17:10;;;;;;;10.30;4.20;;;;;;;12.86;37.66;98914.76;231640;198;152988;-54
2023/12/19 15:22:13;;;;;;;10.40;4.20;;;;;;;12.85;37.44;98913.41;232035;198;138403;-55
2023/12/19 15:27:17;;;;;;;9.80;4.30;;;;;;;12.86;37.19;98903.02;231440;205;138686;-58
2023/12/19 15:32:21;;;;;;;9.60;4.50;;;;;;;12.82;37.01;98890.82;231795;205;154430;-55
2023/12/19 15:37:24;;;;;;;10.70;4.40;;;;;;;12.77;36.69;98880.81;231719;198;137583;-56
2023/12/19 15:42:28;;;;;;;8.20;4.30;;;;;;;12.76;36.14;98877.72;231657;198;139034;-61
2023/12/19 15:47:33;;;;;;;13.60;4.30;;;;;;;12.75;35.88;98876.75;231141;205;154057;-58
2023/12/19 15:52:36;;;;;;;11.00;4.40;;;;;;;12.72;35.61;98872.52;231409;202;138925;-60
2023/12/19 15:57:41;;;;;;;11.20;4.40;;;;;;;12.70;35.30;98867.30;231496;198;138907;-59
2023/12/19 16:02:44;;;;;;;11.70;4.10;;;;;;;12.65;34.66;98862.00;231514;198;154159;-58
2023/12/19 16:07:51;;;;;;;10.20;4.10;;;;;;;12.59;34.45;98860.62;231553;205;138644;-57
2023/12/19 16:12:55;;;;;;;11.60;4.20;;;;;;;12.58;34.28;98848.98;231839;198;138647;-57
2023/12/19 16:17:58;;;;;;;10.00;4.00;;;;;;;12.54;34.13;98846.07;231586;205;154492;-58
2023/12/19 16:23:04;;;;;;;9.40;3.80;;;;;;;12.52;34.13;98825.70;231826;197;138270;-60
2023/12/19 16:28:10;;;;;;;13.80;4.40;;;;;;;12.52;33.94;98818.57;232076;205;137598;-60
2023/12/19 16:33:13;;;;;;;11.40;4.30;;;;;;;12.49;33.75;98808.16;231761;202;153322;-59
2023/12/19 16:38:17;;;;;;;12.90;4.50;;;;;;;12.45;33.65;98803.98;231523;202;138733;-56
2023/12/19 16:43:23;;;;;;;9.30;4.50;;;;;;;12.43;33.46;98796.29;230945;198;138733;-58
2023/12/19 16:48:26;;;;;;;9.50;4.40;;;;;;;12.39;33.17;98801.25;231468;198;153720;-58
2023/12/19 16:53:30;;;;;;;8.10;3.90;;;;;;;12.31;33.19;98814.97;231491;197;138688;-59
2023/12/19 16:58:33;;;;;;;10.00;4.80;;;;;;;12.27;33.15;98807.80;231284;201;138637;-58
2023/12/19 17:03:48;;;;;;;13.50;8.70;;;;;;;12.23;34.34;98798.29;231520;197;154081;-57
2023/12/19 17:08:53;;;;;;;15.20;5.30;;;;;;;12.23;33.81;98786.36;231183;198;138855;-59
2023/12/19 17:13:56;;;;;;;15.70;5.60;;;;;;;12.15;33.56;98790.76;231627;205;139782;-60
2023/12/19 17:18:59;;;;;;;13.90;5.50;;;;;;;12.05;33.66;98799.44;231432;198;153077;-59
2023/12/19 17:24:03;;;;;;;15.30;5.90;;;;;;;11.97;33.68;98804.66;231428;198;142382;-59
2023/12/19 17:29:07;;;;;;;11.80;5.20;;;;;;;11.88;33.85;98802.59;231566;198;137685;-58
2023/12/19 17:34:12;;;;;;;14.70;5.90;;;;;;;11.89;33.78;98795.23;231398;199;153250;-59
2023/12/19 17:39:15;;;;;;;14.50;5.10;;;;;;;11.83;33.63;98786.91;231503;198;138160;-61
2023/12/19 17:44:18;;;;;;;13.80;5.00;;;;;;;11.78;33.44;98779.98;231680;198;138058;-59
2023/12/19 17:49:21;;;;;;;13.30;5.60;;;;;;;11.76;33.32;98775.71;231514;198;153214;-59
2023/12/19 17:54:24;;;;;;;13.20;5.30;;;;;;;11.76;33.42;98775.88;231488;198;138297;-59
2023/12/19 17:59:28;;;;;;;293.90;209.60;;;;;;;11.76;33.39;98770.92;231577;198;137345;-56
2023/12/19 18:04:31;;;;;;;15.30;7.40;;;;;;;11.72;33.68;98766.89;231370;203;154340;-58
2023/12/19 18:09:35;;;;;;;17.00;7.10;;;;;;;11.68;33.60;98764.00;231212;199;137609;-59
2023/12/19 18:14:38;;;;;;;13.90;6.40;;;;;;;11.64;33.75;98768.02;231548;203;137836;-58
2023/12/19 18:19:41;;;;;;;15.30;7.00;;;;;;;11.58;33.58;98772.19;231676;197;153126;-59
2023/12/19 18:24:45;;;;;;;16.10;7.00;;;;;;;11.51;33.47;98777.62;231491;205;139124;-59
2023/12/19 18:29:48;;;;;;;14.30;6.90;;;;;;;11.49;33.17;98771.23;231484;198;137422;-56
2023/12/19 18:34:51;;;;;;;15.30;7.30;;;;;;;11.45;33.22;98759.59;231779;198;154189;-59
2023/12/19 18:39:54;;;;;;;18.30;8.80;;;;;;;11.47;33.51;98764.58;231936;205;137587;-60
2023/12/19 18:44:58;;;;;;;17.10;8.80;;;;;;;11.44;33.04;98764.84;231587;198;138446;-57
2023/12/19 18:50:02;;;;;;;19.70;9.10;;;;;;;11.42;33.40;98761.74;231579;198;153630;-58
2023/12/19 18:55:07;;;;;;;19.60;9.50;;;;;;;11.40;33.01;98759.94;231619;198;138718;-59
2023/12/19 19:00:11;;;;;;;17.10;8.80;;;;;;;11.33;33.02;98752.07;231697;198;137975;-58
2023/12/19 19:05:14;;;;;;;21.40;9.50;;;;;;;11.26;33.20;98754.73;231733;197;154114;-58
2023/12/19 19:10:18;;;;;;;21.10;9.00;;;;;;;11.18;33.32;98748.67;230932;203;138720;-57
2023/12/19 19:15:22;;;;;;;17.30;9.10;;;;;;;11.18;33.49;98746.57;231389;198;137866;-62
2023/12/19 19:20:33;;;;;;;23.40;9.00;;;;;;;11.14;33.64;98749.68;231656;199;153056;-58
2023/12/19 19:25:37;;;;;;;18.80;8.50;;;;;;;11.13;33.74;98747.06;231630;198;137555;-58
2023/12/19 19:30:41;;;;;;;17.30;8.50;;;;;;;11.19;33.78;98752.54;231729;198;137611;-57
2023/12/19 19:35:45;;;;;;;13.40;8.00;;;;;;;11.19;33.62;98749.85;231691;198;153045;-59
2023/12/19 19:40:48;;;;;;;16.80;8.40;;;;;;;11.22;33.78;98747.70;231646;198;140241;-59
2023/12/19 19:45:52;;;;;;;16.80;8.70;;;;;;;11.24;33.78;98732.66;231792;199;137820;-58
2023/12/19 19:50:56;;;;;;;18.30;8.50;;;;;;;11.25;33.80;98729.52;231265;198;153690;-60
2023/12/19 19:55:59;;;;;;;19.00;8.70;;;;;;;11.28;33.76;98728.29;231498;205;137648;-59
2023/12/19 20:01:03;;;;;;;13.90;7.70;;;;;;;11.31;33.81;98728.27;231036;198;141483;-59
2023/12/19 20:06:06;;;;;;;16.00;7.80;;;;;;;11.31;33.66;98726.49;231055;203;153361;-58
2023/12/19 20:11:09;;;;;;;15.00;7.80;;;;;;;11.28;33.67;98719.21;231284;198;138274;-57
2023/12/19 20:16:13;;;;;;;16.00;7.30;;;;;;;11.27;33.72;98718.78;231306;198;137835;-58
2023/12/19 20:21:19;;;;;;;19.60;7.60;;;;;;;11.22;33.88;98714.12;230739;205;152728;-58
2023/12/19 20:26:22;;;;;;;13.90;8.00;;;;;;;11.23;33.92;98713.35;230814;198;138319;-59
2023/12/19 20:31:26;;;;;;;15.50;8.10;;;;;;;11.21;33.96;98703.02;231067;198;138781;-56
2023/12/19 20:36:29;;;;;;;15.50;8.00;;;;;;;11.23;33.99;98693.85;231745;204;154488;-56
2023/12/19 20:41:34;;;;;;;16.20;8.20;;;;;;;11.24;33.87;98691.64;231587;198;136978;-54
2023/12/19 20:46:37;;;;;;;15.30;8.80;;;;;;;11.20;33.99;98685.52;231856;198;138096;-54
2023/12/19 20:51:41;;;;;;;20.60;9.40;;;;;;;11.19;34.09;98685.73;231691;198;153771;-56
2023/12/19 20:56:47;;;;;;;17.50;9.40;;;;;;;11.19;34.19;98687.20;231820;198;139399;-56
2023/12/19 21:01:50;;;;;;;18.60;8.60;;;;;;;11.16;34.18;98680.16;231226;204;138756;-57
2023/12/19 21:06:54;;;;;;;18.50;9.30;;;;;;;11.17;34.29;98670.65;231503;205;153697;-57
2023/12/19 21:11:57;;;;;;;20.30;10.00;;;;;;;11.16;34.46;98659.52;231523;206;138358;-58
2023/12/19 21:17:01;;;;;;;17.50;9.80;;;;;;;11.09;34.69;98647.88;230774;202;138711;-58
2023/12/19 21:22:15;;;;;;;22.80;10.20;;;;;;;11.03;34.91;98644.27;231833;205;153961;-58
2023/12/19 21:27:18;;;;;;;22.00;10.30;;;;;;;10.98;35.08;98642.13;231611;198;137905;-58
2023/12/19 21:32:21;;;;;;;21.70;10.50;;;;;;;10.94;35.15;98632.29;231526;198;138622;-58
2023/12/19 21:37:25;;;;;;;19.70;10.00;;;;;;;10.89;35.27;98629.08;231479;198;155842;-59
2023/12/19 21:42:28;;;;;;;22.40;10.30;;;;;;;10.85;35.39;98616.42;231681;205;138378;-59
2023/12/19 21:47:31;;;;;;;22.70;11.40;;;;;;;10.77;35.47;98605.97;231472;202;139344;-60
2023/12/19 21:52:35;;;;;;;20.90;10.80;;;;;;;10.72;35.64;98603.80;231834;202;153629;-56
2023/12/19 21:57:38;;;;;;;20.20;9.90;;;;;;;10.67;35.78;98594.60;231226;198;138469;-57
2023/12/19 22:02:42;;;;;;;20.70;10.50;;;;;;;10.63;36.06;98578.53;231649;199;138708;-57
2023/12/19 22:07:46;;;;;;;17.50;9.70;;;;;;;10.60;36.10;98571.65;231762;201;153316;-59
2023/12/19 22:12:49;;;;;;;18.60;9.70;;;;;;;10.56;36.28;98564.49;231602;199;140939;-59
2023/12/19 22:17:53;;;;;;;17.90;9.40;;;;;;;10.53;36.38;98562.77;231624;202;138175;-59
2023/12/19 22:22:56;;;;;;;19.70;9.60;;;;;;;10.53;36.43;98561.73;231516;199;153272;-59
2023/12/19 22:28:00;;;;;;;16.40;9.00;;;;;;;10.54;36.41;98552.42;231432;198;138425;-56
2023/12/19 22:33:04;;;;;;;18.80;9.90;;;;;;;10.50;36.45;98541.52;231161;202;139391;-58
2023/12/19 22:38:07;;;;;;;20.30;9.40;;;;;;;10.48;36.46;98534.55;231543;199;152681;-60
2023/12/19 22:43:12;;;;;;;19.10;9.70;;;;;;;10.43;36.61;98535.27;231466;199;137988;-58
2023/12/19 22:48:15;;;;;;;18.80;9.20;;;;;;;10.35;36.77;98528.52;231651;206;138691;-57
2023/12/19 22:53:19;;;;;;;19.80;9.00;;;;;;;10.36;36.87;98511.79;231695;200;153225;-58
2023/12/19 22:58:22;;;;;;;23.10;13.40;;;;;;;10.36;36.90;98513.20;231789;202;137474;-60
2023/12/19 23:03:26;;;;;;;16.40;9.30;;;;;;;10.33;37.07;98500.17;231642;198;137426;-59
2023/12/19 23:08:29;;;;;;;20.90;9.50;;;;;;;10.29;37.06;98497.76;231253;202;153281;-59
2023/12/19 23:13:32;;;;;;;19.40;9.10;;;;;;;10.27;37.12;98498.97;231362;203;138541;-58
2023/12/19 23:18:38;;;;;;;17.50;9.00;;;;;;;10.23;37.26;98492.87;231639;198;138487;-59
2023/12/19 23:23:42;;;;;;;;;;;;;;;10.23;37.14;98485.20;231708;202;153197;-58